createdAt,value
2019-03-10T05:37:40.404Z,987.65
2019-03-10T05:38:40.388Z,987.66
2019-03-10T05:39:40.391Z,987.61
2019-03-10T05:40:40.455Z,987.60
2019-03-10T05:41:40.378Z,987.58
2019-03-10T05:42:40.358Z,987.58
2019-03-10T05:43:40.343Z,987.48
2019-03-10T05:44:40.331Z,987.48
2019-03-10T05:45:40.334Z,987.47
2019-03-10T05:46:40.319Z,987.41
2019-03-10T05:47:40.292Z,987.33
2019-03-10T05:48:40.282Z,987.28
2019-03-10T05:49:40.289Z,987.22
2019-03-10T05:50:40.264Z,987.17
2019-03-10T05:51:40.260Z,987.13
2019-03-10T05:52:40.244Z,987.10
2019-03-10T05:53:40.230Z,987.12
2019-03-10T05:54:40.222Z,987.13
2019-03-10T05:55:40.393Z,987.12
2019-03-10T05:56:40.205Z,987.05
2019-03-10T05:57:40.182Z,987.05
2019-03-10T05:58:40.178Z,987.03
2019-03-10T05:59:40.162Z,987.02
2019-03-10T06:00:43.090Z,986.94
2019-03-10T06:01:40.146Z,986.90
2019-03-10T06:02:40.126Z,986.83
2019-03-10T06:03:40.122Z,986.73
2019-03-10T06:04:40.123Z,986.60
2019-03-10T06:05:40.116Z,986.57
2019-03-10T06:06:40.093Z,986.57
2019-03-10T06:07:40.113Z,986.58
2019-03-10T06:08:40.072Z,986.60
2019-03-10T06:09:40.074Z,986.59
2019-03-10T06:10:40.106Z,986.61
2019-03-10T06:11:40.043Z,986.62
2019-03-10T06:12:40.028Z,986.59
2019-03-10T06:13:40.031Z,986.55
2019-03-10T06:14:40.001Z,986.57
2019-03-10T06:15:40.000Z,986.49
2019-03-10T06:16:39.978Z,986.43
2019-03-10T06:17:39.975Z,986.37
2019-03-10T06:18:39.969Z,986.30
2019-03-10T06:19:39.950Z,986.22
2019-03-10T06:20:39.940Z,986.12
2019-03-10T06:21:39.922Z,986.09
2019-03-10T06:22:39.917Z,986.06
2019-03-10T06:23:39.904Z,986.08
2019-03-10T06:24:39.913Z,986.06
2019-03-10T06:25:39.894Z,986.06
2019-03-10T06:26:39.866Z,986.03
2019-03-10T06:27:39.875Z,985.98
2019-03-10T06:28:39.871Z,985.91
2019-03-10T06:29:39.841Z,985.75
2019-03-10T06:30:39.854Z,985.73
2019-03-10T06:31:39.826Z,985.71
2019-03-10T06:32:39.801Z,985.63
2019-03-10T06:33:39.803Z,985.64
2019-03-10T06:34:39.782Z,985.63
2019-03-10T06:35:39.790Z,985.67
2019-03-10T06:36:39.759Z,985.68
2019-03-10T06:37:39.748Z,985.71
2019-03-10T06:38:39.770Z,985.68
2019-03-10T06:39:39.731Z,985.58
2019-03-10T06:40:39.719Z,985.53
2019-03-10T06:41:39.708Z,985.50
2019-03-10T06:42:39.712Z,985.41
2019-03-10T06:43:39.685Z,985.27
2019-03-10T06:44:39.676Z,985.16
2019-03-10T06:45:39.661Z,985.23
2019-03-10T06:46:39.664Z,985.34
2019-03-10T06:47:39.681Z,985.35
2019-03-10T06:48:39.640Z,985.36
2019-03-10T06:49:39.628Z,985.31
2019-03-10T06:50:39.711Z,985.29
2019-03-10T06:51:39.595Z,985.23
2019-03-10T06:52:39.594Z,985.22
2019-03-10T06:53:39.580Z,985.16
2019-03-10T06:54:39.715Z,985.11
2019-03-10T06:55:39.554Z,985.14
2019-03-10T06:56:39.547Z,985.13
2019-03-10T06:57:39.700Z,985.02
2019-03-10T06:58:39.530Z,984.96
2019-03-10T06:59:39.508Z,984.89
2019-03-10T07:00:45.275Z,984.88
2019-03-10T07:01:39.504Z,984.80
2019-03-10T07:02:39.503Z,984.75
2019-03-10T07:03:39.473Z,984.73
2019-03-10T07:04:39.455Z,984.70
2019-03-10T07:05:39.454Z,984.72
2019-03-10T07:06:39.441Z,984.67
2019-03-10T07:07:39.477Z,984.61
2019-03-10T07:08:39.456Z,984.66
2019-03-10T07:09:39.403Z,984.62
2019-03-10T07:10:39.392Z,984.64
2019-03-10T07:11:39.389Z,984.61
2019-03-10T07:12:39.380Z,984.57
2019-03-10T07:13:39.768Z,984.57
2019-03-10T07:14:39.348Z,984.66
2019-03-10T07:15:40.146Z,984.63
2019-03-10T07:16:41.383Z,984.50
2019-03-10T07:17:39.321Z,984.52
2019-03-10T07:18:39.307Z,984.48
2019-03-10T07:19:39.289Z,984.46
2019-03-10T07:20:39.282Z,984.46
2019-03-10T07:21:39.278Z,984.43
2019-03-10T07:22:39.261Z,984.40
2019-03-10T07:23:39.306Z,984.39
2019-03-10T07:24:39.246Z,984.43
2019-03-10T07:25:39.232Z,984.38
2019-03-10T07:26:39.213Z,984.38
2019-03-10T07:27:39.209Z,984.31
2019-03-10T07:28:39.202Z,984.36
2019-03-10T07:29:39.185Z,984.31
2019-03-10T07:30:39.177Z,984.25
2019-03-10T07:31:39.173Z,984.28
2019-03-10T07:32:39.147Z,984.24
2019-03-10T07:33:39.137Z,984.23
2019-03-10T07:34:39.134Z,984.26
2019-03-10T07:35:39.114Z,984.21
2019-03-10T07:36:39.101Z,984.21
2019-03-10T07:37:39.090Z,984.19
2019-03-10T07:38:39.082Z,984.21
2019-03-10T07:39:39.086Z,984.22
2019-03-10T07:40:39.056Z,984.15
2019-03-10T07:41:39.054Z,984.16
2019-03-10T07:42:39.052Z,984.23
2019-03-10T07:43:39.032Z,984.19
2019-03-10T07:44:39.015Z,984.21
2019-03-10T07:45:39.003Z,984.15
2019-03-10T07:46:39.005Z,984.21
2019-03-10T07:47:38.987Z,984.21
2019-03-10T07:48:39.049Z,984.14
2019-03-10T07:49:38.957Z,984.09
2019-03-10T07:50:38.953Z,984.07
2019-03-10T07:51:38.938Z,984.04
2019-03-10T07:52:38.928Z,984.07
2019-03-10T07:53:38.961Z,984.04
2019-03-10T07:54:38.911Z,984.02
2019-03-10T07:55:38.903Z,984.05
2019-03-10T07:56:38.887Z,984.02
2019-03-10T07:57:38.870Z,983.97
2019-03-10T07:58:38.863Z,983.96
2019-03-10T07:59:38.848Z,983.93
2019-03-10T08:00:38.855Z,983.89
2019-03-10T08:01:38.841Z,983.91
2019-03-10T08:02:38.854Z,983.89
2019-03-10T08:03:38.821Z,983.91
2019-03-10T08:04:38.798Z,983.85
2019-03-10T08:05:38.794Z,983.92
2019-03-10T08:06:38.786Z,983.90
2019-03-10T08:07:38.770Z,983.88
2019-03-10T08:08:38.755Z,983.86
2019-03-10T08:09:38.745Z,983.83
2019-03-10T08:11:38.763Z,983.80
2019-03-10T08:12:38.721Z,983.84
2019-03-10T08:14:38.698Z,983.87
2019-03-10T08:30:38.523Z,983.71
2019-03-10T08:40:38.409Z,983.66
2019-03-10T08:51:03.667Z,983.89
2019-03-10T09:01:03.556Z,983.96
2019-03-10T09:17:03.386Z,983.76
2019-03-10T09:18:03.392Z,983.83
2019-03-10T09:20:03.357Z,983.80
2019-03-10T09:21:03.340Z,983.67
2019-03-10T09:22:03.330Z,983.86
2019-03-10T09:23:03.324Z,983.77
2019-03-10T09:24:03.315Z,983.59
2019-03-10T09:25:03.290Z,983.87
2019-03-10T09:27:03.311Z,983.84
2019-03-10T09:28:03.259Z,983.68
2019-03-10T09:29:03.264Z,983.80
2019-03-10T09:30:03.248Z,983.57
2019-03-10T09:31:03.257Z,983.76
2019-03-10T09:32:03.230Z,983.81
2019-03-10T09:33:03.205Z,983.73
2019-03-10T09:34:03.202Z,983.68
2019-03-10T09:37:03.161Z,983.74
2019-03-10T09:40:03.137Z,983.61
2019-03-10T09:41:03.141Z,983.53
2019-03-10T09:42:03.110Z,983.58
2019-03-10T09:44:03.971Z,983.57
2019-03-10T09:50:03.021Z,983.38
2019-03-10T09:52:02.992Z,983.45
2019-03-10T09:53:02.991Z,983.42
2019-03-10T09:54:02.975Z,983.36
2019-03-10T09:57:02.981Z,983.33
2019-03-10T09:58:02.927Z,983.37
2019-03-10T10:00:02.914Z,983.33
2019-03-10T10:01:02.906Z,983.36
2019-03-10T10:02:02.904Z,983.09
2019-03-10T10:04:02.874Z,983.27
2019-03-10T10:05:02.862Z,983.18
2019-03-10T10:08:02.827Z,983.03
2019-03-10T10:11:02.862Z,983.19
2019-03-10T10:12:12.967Z,983.16
2019-03-10T10:13:27.954Z,983.19
2019-03-10T10:14:27.937Z,983.16
2019-03-10T10:15:27.937Z,983.17
2019-03-10T10:16:27.919Z,983.31
2019-03-10T10:17:27.914Z,983.02
2019-03-10T10:18:27.898Z,983.19
2019-03-10T10:19:27.888Z,983.11
2019-03-10T10:20:27.869Z,983.17
2019-03-10T10:21:27.949Z,983.12
2019-03-10T10:22:27.851Z,983.00
2019-03-10T10:23:27.833Z,982.97
2019-03-10T10:24:27.819Z,983.04
2019-03-10T10:25:27.810Z,983.11
2019-03-10T10:26:27.799Z,983.13
2019-03-10T10:27:27.793Z,983.28
2019-03-10T10:28:28.793Z,983.11
2019-03-10T10:29:27.774Z,983.18
2019-03-10T10:30:30.673Z,983.06
2019-03-10T10:31:27.751Z,983.14
2019-03-10T10:32:27.732Z,983.21
2019-03-10T10:33:27.722Z,983.08
2019-03-10T10:34:27.710Z,983.21
2019-03-10T10:35:27.733Z,983.20
2019-03-10T10:36:27.689Z,983.25
2019-03-10T10:37:27.684Z,983.15
2019-03-10T10:38:27.721Z,983.25
2019-03-10T10:39:27.765Z,983.18
2019-03-10T10:40:27.661Z,983.26
2019-03-10T10:41:27.637Z,983.25
2019-03-10T10:42:27.629Z,983.17
2019-03-10T10:43:27.610Z,983.14
2019-03-10T10:44:27.605Z,983.15
2019-03-10T10:45:27.609Z,983.06
2019-03-10T10:46:27.593Z,983.16
2019-03-10T10:47:27.576Z,983.05
2019-03-10T10:48:27.566Z,983.05
2019-03-10T10:57:29.533Z,983.07
2019-03-10T10:57:29.643Z,982.89
2019-03-10T10:57:29.717Z,982.78
2019-03-10T10:58:27.446Z,982.95
2019-03-10T10:59:27.565Z,982.73
2019-03-10T11:00:28.865Z,982.70
2019-03-10T11:01:27.436Z,982.68
2019-03-10T11:02:27.404Z,982.92
2019-03-10T11:03:27.403Z,982.82
2019-03-10T11:04:27.422Z,982.76
2019-03-10T11:05:27.455Z,982.82
2019-03-10T11:06:27.361Z,982.87
2019-03-10T11:07:27.348Z,982.99
2019-03-10T11:08:27.344Z,982.87
2019-03-10T11:09:27.329Z,982.65
2019-03-10T11:10:27.334Z,982.83
2019-03-10T11:11:27.384Z,982.70
2019-03-10T11:12:27.345Z,982.70
2019-03-10T11:13:27.281Z,982.60
2019-03-10T11:14:27.290Z,982.90
2019-03-10T11:15:27.296Z,982.70
2019-03-10T11:16:27.291Z,982.81
2019-03-10T11:17:27.246Z,982.59
2019-03-10T11:18:27.230Z,982.70
2019-03-10T11:19:27.219Z,982.85
2019-03-10T11:20:27.226Z,982.86
2019-03-10T11:21:27.216Z,982.66
2019-03-10T11:22:27.181Z,982.58
2019-03-10T11:23:28.371Z,982.64
2019-03-10T11:24:27.201Z,982.55
2019-03-10T11:25:27.154Z,982.51
2019-03-10T11:26:27.149Z,982.62
2019-03-10T11:27:27.165Z,982.47
2019-03-10T11:28:27.156Z,982.57
2019-03-10T11:29:27.107Z,982.58
2019-03-10T11:30:27.104Z,982.49
2019-03-10T11:31:27.083Z,982.68
2019-03-10T11:32:27.115Z,982.38
2019-03-10T11:33:27.771Z,982.47
2019-03-10T11:34:27.055Z,982.30
2019-03-10T11:35:27.144Z,982.37
2019-03-10T11:36:27.054Z,982.32
2019-03-10T11:37:27.052Z,982.41
2019-03-10T11:38:27.011Z,982.36
2019-03-10T11:39:27.007Z,982.27
2019-03-10T11:40:27.026Z,982.12
2019-03-10T11:41:33.872Z,982.30
2019-03-10T11:42:51.774Z,982.13
2019-03-10T11:43:51.737Z,982.43
2019-03-10T11:44:51.735Z,982.21
2019-03-10T11:45:51.734Z,982.11
2019-03-10T11:46:51.721Z,982.16
2019-03-10T11:47:51.730Z,982.19
2019-03-10T11:48:51.684Z,982.27
2019-03-10T11:49:51.672Z,982.36
2019-03-10T11:50:51.715Z,982.25
2019-03-10T11:51:51.687Z,982.15
2019-03-10T11:52:51.700Z,982.36
2019-03-10T11:53:51.679Z,982.33
2019-03-10T11:54:51.628Z,982.46
2019-03-10T11:55:51.603Z,982.49
2019-03-10T11:56:51.591Z,982.58
2019-03-10T11:57:51.604Z,982.56
2019-03-10T11:58:51.583Z,982.57
2019-03-10T11:59:51.773Z,982.62
2019-03-10T12:00:52.022Z,982.65
2019-03-10T12:01:51.554Z,982.63
2019-03-10T12:02:51.600Z,982.88
2019-03-10T12:03:51.559Z,982.67
2019-03-10T12:04:51.518Z,982.71
2019-03-10T12:05:51.497Z,982.73
2019-03-10T12:06:51.492Z,982.74
2019-03-10T12:07:51.472Z,982.77
2019-03-10T12:08:51.514Z,982.90
2019-03-10T12:09:51.467Z,982.81
2019-03-10T12:10:51.455Z,982.75
2019-03-10T12:11:51.459Z,982.78
2019-03-10T12:12:51.462Z,982.70
2019-03-10T12:13:51.414Z,982.76
2019-03-10T12:14:51.395Z,982.89
2019-03-10T12:15:51.395Z,982.93
2019-03-10T12:16:52.477Z,982.89
2019-03-10T12:17:51.386Z,982.98
2019-03-10T12:18:51.362Z,982.99
2019-03-10T12:19:51.442Z,983.12
2019-03-10T12:20:51.337Z,983.06
2019-03-10T12:21:51.318Z,982.87
2019-03-10T12:22:51.319Z,983.19
2019-03-10T12:23:51.296Z,982.88
2019-03-10T12:24:51.322Z,983.09
2019-03-10T12:25:51.269Z,982.90
2019-03-10T12:26:51.275Z,983.13
2019-03-10T12:27:51.261Z,983.05
2019-03-10T12:28:51.251Z,982.97
2019-03-10T12:29:51.239Z,983.20
2019-03-10T12:30:51.215Z,983.04
2019-03-10T12:31:51.222Z,983.21
2019-03-10T12:32:51.359Z,982.82
2019-03-10T12:33:51.199Z,982.89
2019-03-10T12:34:51.175Z,982.71
2019-03-10T12:35:51.197Z,983.25
2019-03-10T12:36:51.161Z,983.25
2019-03-10T12:37:51.141Z,983.10
2019-03-10T12:38:51.131Z,983.07
2019-03-10T12:39:51.125Z,983.35
2019-03-10T12:40:51.130Z,983.17
2019-03-10T12:41:58.519Z,983.33
2019-03-10T12:43:15.970Z,983.17
2019-03-10T12:44:15.962Z,983.26
2019-03-10T12:45:21.403Z,983.46
2019-03-10T12:46:15.965Z,983.02
2019-03-10T12:47:15.937Z,983.65
2019-03-10T12:48:15.949Z,983.41
2019-03-10T12:49:15.919Z,983.58
2019-03-10T12:50:15.889Z,983.62
2019-03-10T12:51:15.890Z,983.71
2019-03-10T12:52:15.877Z,983.97
2019-03-10T12:53:15.866Z,983.63
2019-03-10T12:54:15.862Z,983.82
2019-03-10T12:55:15.847Z,983.59
2019-03-10T12:56:15.832Z,983.50
2019-03-10T12:57:15.823Z,983.48
2019-03-10T12:58:15.847Z,983.74
2019-03-10T12:59:15.796Z,983.49
2019-03-10T13:00:15.797Z,983.94
2019-03-10T13:01:15.771Z,983.67
2019-03-10T13:02:15.765Z,983.75
2019-03-10T13:03:15.827Z,983.82
2019-03-10T13:04:15.741Z,983.76
2019-03-10T13:05:15.733Z,983.43
2019-03-10T13:06:15.795Z,983.88
2019-03-10T13:07:15.717Z,983.78
2019-03-10T13:08:15.721Z,983.79
2019-03-10T13:09:15.698Z,983.89
2019-03-10T13:10:15.697Z,983.89
2019-03-10T13:11:15.667Z,983.88
2019-03-10T13:12:15.689Z,983.85
2019-03-10T13:13:15.671Z,984.03
2019-03-10T13:14:15.631Z,983.95
2019-03-10T13:15:16.190Z,983.82
2019-03-10T13:16:15.623Z,984.00
2019-03-10T13:17:15.599Z,983.81
2019-03-10T13:18:15.585Z,983.93
2019-03-10T13:19:15.574Z,983.77
2019-03-10T13:20:15.566Z,983.56
2019-03-10T13:21:15.559Z,983.72
2019-03-10T13:22:15.554Z,983.67
2019-03-10T13:23:15.555Z,983.60
2019-03-10T13:24:15.540Z,983.92
2019-03-10T13:25:15.546Z,983.88
2019-03-10T13:26:15.506Z,983.94
2019-03-10T13:27:15.493Z,984.05
2019-03-10T13:28:15.486Z,983.92
2019-03-10T13:29:15.479Z,983.90
2019-03-10T13:30:15.457Z,983.81
2019-03-10T13:31:15.510Z,983.87
2019-03-10T13:32:15.460Z,983.80
2019-03-10T13:33:15.425Z,983.94
2019-03-10T13:34:15.416Z,983.77
2019-03-10T13:35:15.408Z,983.95
2019-03-10T13:36:15.390Z,983.90
2019-03-10T13:37:15.385Z,984.04
2019-03-10T13:38:15.391Z,984.07
2019-03-10T13:39:15.368Z,984.06
2019-03-10T13:40:15.352Z,984.17
2019-03-10T13:41:15.347Z,984.29
2019-03-10T13:42:15.430Z,983.89
2019-03-10T13:43:15.326Z,984.18
2019-03-10T13:44:15.313Z,984.36
2019-03-10T13:45:15.314Z,984.27
2019-03-10T13:46:15.295Z,984.39
2019-03-10T13:47:15.287Z,984.29
2019-03-10T13:48:15.257Z,984.23
2019-03-10T13:49:15.250Z,984.04
2019-03-10T13:50:15.246Z,984.23
2019-03-10T13:51:15.231Z,984.26
2019-03-10T13:52:15.219Z,984.19
2019-03-10T13:53:15.210Z,984.25
2019-03-10T13:54:15.256Z,984.37
2019-03-10T13:55:15.210Z,984.42
2019-03-10T13:56:15.211Z,984.44
2019-03-10T13:57:15.157Z,984.40
2019-03-10T13:58:15.153Z,984.45
2019-03-10T13:59:15.148Z,984.57
2019-03-10T14:00:15.152Z,984.79
2019-03-10T14:01:15.135Z,984.67
2019-03-10T14:02:15.117Z,984.55
2019-03-10T14:03:15.101Z,984.81
2019-03-10T14:04:15.092Z,984.72
2019-03-10T14:05:15.074Z,984.68
2019-03-10T14:06:15.066Z,984.68
2019-03-10T14:07:15.053Z,984.58
2019-03-10T14:08:15.036Z,984.88
2019-03-10T14:09:15.060Z,984.71
2019-03-10T14:10:15.021Z,984.51
2019-03-10T14:11:15.023Z,984.92
2019-03-10T14:12:15.030Z,984.79
2019-03-10T14:13:15.002Z,984.85
2019-03-10T14:14:14.984Z,984.80
2019-03-10T14:15:14.968Z,984.95
2019-03-10T14:16:14.964Z,985.05
2019-03-10T14:17:14.949Z,985.08
2019-03-10T14:18:14.950Z,985.04
2019-03-10T14:19:14.938Z,985.25
2019-03-10T14:20:14.918Z,985.54
2019-03-10T14:21:14.934Z,985.46
2019-03-10T14:22:14.893Z,985.56
2019-03-10T14:23:14.878Z,985.56
2019-03-10T14:24:14.974Z,985.99
2019-03-10T14:25:14.862Z,985.90
2019-03-10T14:26:14.853Z,986.12
2019-03-10T14:27:14.833Z,986.06
2019-03-10T14:28:14.830Z,985.99
2019-03-10T14:29:14.848Z,985.88
2019-03-10T14:30:20.032Z,986.11
2019-03-10T14:31:14.814Z,985.90
2019-03-10T14:32:14.783Z,986.02
2019-03-10T14:33:14.791Z,986.21
2019-03-10T14:34:14.758Z,986.32
2019-03-10T14:35:14.748Z,986.30
2019-03-10T14:36:14.734Z,986.20
2019-03-10T14:37:14.744Z,986.17
2019-03-10T14:38:14.838Z,986.07
2019-03-10T14:39:14.706Z,986.05
2019-03-10T14:40:14.736Z,986.23
2019-03-10T14:41:14.693Z,986.25
2019-03-10T14:42:14.671Z,986.38
2019-03-10T14:43:14.781Z,986.21
2019-03-10T14:44:14.657Z,986.19
2019-03-10T14:45:14.645Z,986.16
2019-03-10T14:46:14.648Z,986.25
2019-03-10T14:47:14.667Z,986.36
2019-03-10T14:48:14.606Z,986.67
2019-03-10T14:49:22.573Z,986.40
2019-03-10T14:50:39.877Z,986.34
2019-03-10T14:51:39.876Z,986.57
2019-03-10T14:52:39.840Z,986.78
2019-03-10T14:53:40.042Z,986.56
2019-03-10T14:54:39.820Z,986.53
2019-03-10T14:55:39.823Z,986.54
2019-03-10T14:56:39.794Z,986.68
2019-03-10T14:57:39.788Z,986.78
2019-03-10T14:58:39.774Z,986.51
2019-03-10T14:59:39.770Z,986.66
2019-03-10T15:00:39.755Z,986.65
2019-03-10T15:01:39.744Z,986.81
2019-03-10T15:02:39.753Z,986.90
2019-03-10T15:03:39.742Z,986.82
2019-03-10T15:04:39.708Z,986.99
2019-03-10T15:05:39.718Z,987.06
2019-03-10T15:06:39.702Z,987.00
2019-03-10T15:07:39.678Z,987.10
2019-03-10T15:08:39.680Z,987.24
2019-03-10T15:09:39.658Z,987.29
2019-03-10T15:10:39.647Z,987.27
2019-03-10T15:11:39.642Z,987.23
2019-03-10T15:12:39.628Z,987.29
2019-03-10T15:13:39.626Z,987.76
2019-03-10T15:14:39.632Z,987.50
2019-03-10T15:15:39.613Z,987.42
2019-03-10T15:16:39.576Z,987.74
2019-03-10T15:17:39.571Z,987.56
2019-03-10T15:18:39.559Z,987.54
2019-03-10T15:19:39.544Z,987.76
2019-03-10T15:20:39.545Z,987.73
2019-03-10T15:21:39.549Z,987.61
2019-03-10T15:22:39.542Z,987.90
2019-03-10T15:23:40.514Z,987.61
2019-03-10T15:24:39.496Z,987.75
2019-03-10T15:25:39.599Z,988.00
2019-03-10T15:26:45.683Z,987.95
2019-03-10T15:28:04.646Z,988.12
2019-03-10T15:29:04.649Z,987.93
2019-03-10T15:30:04.627Z,987.76
2019-03-10T15:31:04.613Z,988.26
2019-03-10T15:32:04.610Z,988.26
2019-03-10T15:33:04.594Z,988.07
2019-03-10T15:34:04.578Z,988.25
2019-03-10T15:35:04.572Z,988.40
2019-03-10T15:37:04.558Z,988.44
2019-03-10T15:38:04.540Z,988.38
2019-03-10T15:39:04.526Z,988.46
2019-03-10T15:40:04.510Z,988.46
2019-03-10T15:41:04.505Z,988.62
2019-03-10T15:42:04.505Z,988.50
2019-03-10T15:43:04.481Z,988.58
2019-03-10T15:44:04.474Z,988.64
2019-03-10T15:45:04.466Z,988.50
2019-03-10T15:46:04.444Z,988.67
2019-03-10T15:47:04.491Z,988.66
2019-03-10T15:48:04.442Z,988.70
2019-03-10T15:50:04.413Z,988.64
2019-03-10T15:51:04.407Z,988.58
2019-03-10T15:52:04.383Z,988.71
2019-03-10T15:53:04.381Z,988.65
2019-03-10T15:56:04.339Z,988.88
2019-03-10T15:57:04.326Z,988.87
2019-03-10T15:58:04.394Z,988.90
2019-03-10T15:59:04.301Z,988.97
2019-03-10T16:00:04.319Z,989.01
2019-03-10T16:01:04.344Z,989.17
2019-03-10T16:02:04.269Z,989.20
2019-03-10T16:03:04.325Z,989.23
2019-03-10T16:04:04.439Z,989.20
2019-03-10T16:05:04.250Z,989.25
2019-03-10T16:06:04.231Z,989.39
2019-03-10T16:07:04.230Z,989.28
2019-03-10T16:08:04.204Z,989.53
2019-03-10T16:10:04.198Z,989.36
2019-03-10T16:11:04.193Z,989.64
2019-03-10T16:12:04.168Z,989.54
2019-03-10T16:13:04.169Z,989.64
2019-03-10T16:14:04.143Z,989.83
2019-03-10T16:15:04.125Z,989.80
2019-03-10T16:16:04.116Z,989.81
2019-03-10T16:17:04.120Z,989.89
2019-03-10T16:18:04.101Z,990.27
2019-03-10T16:19:04.093Z,990.12
2019-03-10T16:20:04.076Z,990.15
2019-03-10T16:21:04.086Z,990.35
2019-03-10T16:22:04.099Z,990.32
2019-03-10T16:23:04.041Z,990.33
2019-03-10T16:25:04.022Z,990.50
2019-03-10T16:26:04.069Z,990.67
2019-03-10T16:29:04.089Z,990.70
2019-03-10T16:30:03.967Z,990.67
2019-03-10T16:31:03.968Z,990.58
2019-03-10T16:32:03.937Z,990.72
2019-03-10T16:33:03.973Z,990.86
2019-03-10T16:34:03.979Z,990.77
2019-03-10T16:35:03.905Z,990.88
2019-03-10T16:36:03.923Z,990.76
2019-03-10T16:37:04.060Z,990.85
2019-03-10T16:39:03.869Z,990.72
2019-03-10T16:41:03.852Z,990.75
2019-03-10T16:43:03.839Z,990.85
2019-03-10T16:47:03.780Z,991.22
2019-03-10T16:49:03.759Z,991.13
2019-03-10T16:51:03.738Z,991.27
2019-03-10T16:55:03.701Z,991.42
2019-03-10T16:58:03.669Z,991.33
2019-03-10T17:03:03.614Z,991.64
2019-03-10T17:04:03.597Z,991.72
2019-03-10T17:05:03.586Z,991.84
2019-03-10T17:09:04.785Z,991.77
2019-03-10T17:13:03.502Z,991.96
2019-03-10T17:14:03.493Z,991.98
2019-03-10T17:15:03.509Z,991.98
2019-03-10T17:17:03.500Z,992.00
2019-03-10T17:18:03.452Z,992.04
2019-03-10T17:19:03.430Z,992.14
2019-03-10T17:20:03.431Z,992.22
2019-03-10T17:21:03.473Z,992.14
2019-03-10T17:22:03.402Z,992.19
2019-03-10T17:23:03.393Z,992.30
2019-03-10T17:24:03.381Z,992.32
2019-03-10T17:25:03.382Z,992.41
2019-03-10T17:26:03.382Z,992.36
2019-03-10T17:27:04.889Z,992.29
